createdAt,value
2022-12-26T00:00:56.994Z,1.48
2022-12-26T00:03:24.113Z,1.46
2022-12-26T00:05:51.226Z,1.42
2022-12-26T00:08:18.574Z,1.35
2022-12-26T00:10:45.538Z,1.28
2022-12-26T00:13:40.033Z,1.22
2022-12-26T00:15:59.615Z,1.15
2022-12-26T00:18:26.640Z,1.16
2022-12-26T00:20:53.573Z,1.20
2022-12-26T00:23:23.072Z,1.21
2022-12-26T00:25:50.045Z,1.20
2022-12-26T00:28:17.372Z,1.17
2022-12-26T00:30:44.422Z,1.13
2022-12-26T00:33:11.366Z,1.11
2022-12-26T00:35:38.411Z,1.08
2022-12-26T00:38:05.361Z,1.14
2022-12-26T00:40:32.206Z,1.23
2022-12-26T00:42:59.145Z,1.28
2022-12-26T00:45:26.088Z,1.31
2022-12-26T00:47:56.520Z,1.32
2022-12-26T00:50:23.342Z,1.32
2022-12-26T00:52:50.300Z,1.32
2022-12-26T00:55:17.270Z,1.36
2022-12-26T00:57:44.192Z,1.44
2022-12-26T01:00:12.077Z,1.49
2022-12-26T01:02:39.188Z,1.52
2022-12-26T01:05:10.555Z,1.52
2022-12-26T01:08:22.825Z,1.51
2022-12-26T01:10:25.228Z,1.59
2022-12-26T01:12:52.178Z,1.69
2022-12-26T01:15:19.120Z,1.74
2022-12-26T01:17:46.063Z,1.75
2022-12-26T01:20:14.451Z,1.74
2022-12-26T01:22:41.414Z,1.72
2022-12-26T01:25:08.953Z,1.70
2022-12-26T01:27:35.893Z,1.74
2022-12-26T01:30:02.833Z,1.81
2022-12-26T01:32:29.777Z,1.86
2022-12-26T01:34:56.692Z,1.86
2022-12-26T01:37:23.788Z,1.84
2022-12-26T01:39:52.153Z,1.81
2022-12-26T01:42:21.327Z,1.76
2022-12-26T01:45:05.103Z,1.79
2022-12-26T01:47:35.017Z,1.88
2022-12-26T01:50:01.966Z,1.91
2022-12-26T01:52:32.475Z,1.88
2022-12-26T01:54:59.415Z,1.84
2022-12-26T01:57:31.481Z,1.79
2022-12-26T01:59:58.736Z,1.82
2022-12-26T02:02:26.672Z,1.90
2022-12-26T02:05:32.561Z,1.93
2022-12-26T02:07:59.466Z,1.93
2022-12-26T02:10:26.346Z,1.89
2022-12-26T02:12:53.240Z,1.85
2022-12-26T02:15:20.238Z,1.86
2022-12-26T02:17:47.392Z,1.87
2022-12-26T02:20:26.043Z,1.83
2022-12-26T02:23:12.208Z,1.77
2022-12-26T02:26:21.135Z,1.72
2022-12-26T02:28:56.878Z,1.66
2022-12-26T02:31:29.687Z,1.63
2022-12-26T02:34:14.146Z,1.66
2022-12-26T02:36:47.205Z,1.71
2022-12-26T02:39:45.342Z,1.72
2022-12-26T02:42:15.908Z,1.68
2022-12-26T02:45:11.343Z,1.64
2022-12-26T02:47:55.363Z,1.60
2022-12-26T02:50:48.937Z,1.57
2022-12-26T02:53:37.707Z,1.63
2022-12-26T02:56:34.841Z,1.69
2022-12-26T02:59:54.581Z,1.69
2022-12-26T03:02:42.838Z,1.67
2022-12-26T03:05:35.931Z,1.63
2022-12-26T03:08:22.225Z,1.57
2022-12-26T03:11:08.112Z,1.51
2022-12-26T03:13:37.045Z,1.55
2022-12-26T03:16:25.683Z,1.63
2022-12-26T03:19:00.591Z,1.68
2022-12-26T03:21:30.062Z,1.68
2022-12-26T03:23:57.140Z,1.66
2022-12-26T03:26:40.923Z,1.66
2022-12-26T03:29:31.084Z,1.64
2022-12-26T03:31:58.363Z,1.69
2022-12-26T03:34:25.377Z,1.76
2022-12-26T03:37:21.803Z,1.80
2022-12-26T03:40:45.308Z,1.80
2022-12-26T03:43:40.387Z,1.78
2022-12-26T03:46:26.099Z,1.74
2022-12-26T03:49:34.477Z,1.71
2022-12-26T03:52:43.926Z,1.76
2022-12-26T03:55:45.268Z,1.86
2022-12-26T03:58:46.678Z,1.86
2022-12-26T04:01:38.794Z,1.84
2022-12-26T04:04:26.179Z,1.80
2022-12-26T04:07:16.992Z,1.77
2022-12-26T04:10:31.143Z,1.81
2022-12-26T04:13:16.950Z,1.89
2022-12-26T04:16:06.802Z,1.86
2022-12-26T04:19:26.406Z,1.80
2022-12-26T04:22:13.980Z,1.76
2022-12-26T04:25:49.850Z,1.72
2022-12-26T04:28:28.397Z,1.78
2022-12-26T04:31:26.120Z,1.85
2022-12-26T04:34:21.708Z,1.82
2022-12-26T04:37:16.185Z,1.77
2022-12-26T04:40:02.996Z,1.74
2022-12-26T04:42:51.152Z,1.74
2022-12-26T04:45:18.094Z,1.83
2022-12-26T04:48:04.989Z,1.94
2022-12-26T04:50:31.794Z,1.98
2022-12-26T04:53:01.619Z,1.98
2022-12-26T04:55:32.822Z,1.96
2022-12-26T04:57:59.798Z,1.95
2022-12-26T05:00:28.160Z,1.93
2022-12-26T05:03:18.689Z,1.97
2022-12-26T05:06:14.072Z,2.07
2022-12-26T05:09:03.718Z,2.13
2022-12-26T05:11:32.232Z,2.16
2022-12-26T05:13:59.379Z,2.17
2022-12-26T05:16:45.301Z,2.17
2022-12-26T05:19:35.320Z,2.23
2022-12-26T05:22:21.106Z,2.30
2022-12-26T05:26:45.645Z,2.30
2022-12-26T05:29:12.730Z,2.25
2022-12-26T05:31:39.810Z,2.20
2022-12-26T05:34:07.852Z,2.15
2022-12-26T05:36:39.005Z,2.16
2022-12-26T05:39:06.552Z,2.21
2022-12-26T05:41:33.593Z,2.20
2022-12-26T05:44:00.527Z,2.14
2022-12-26T05:46:27.645Z,2.05
2022-12-26T05:48:54.627Z,1.99
2022-12-26T05:51:21.679Z,1.92
2022-12-26T05:53:48.728Z,1.90
2022-12-26T05:56:16.501Z,1.89
2022-12-26T05:58:43.429Z,1.89
2022-12-26T06:01:29.253Z,1.87
2022-12-26T06:03:57.937Z,1.86
2022-12-26T06:06:25.700Z,1.85
2022-12-26T06:08:54.655Z,1.84
2022-12-26T06:11:22.055Z,1.88
2022-12-26T06:13:49.059Z,1.94
2022-12-26T06:16:17.060Z,1.96
2022-12-26T06:18:44.134Z,1.96
2022-12-26T06:21:12.752Z,1.96
2022-12-26T06:23:39.723Z,1.93
2022-12-26T06:26:08.063Z,1.88
2022-12-26T06:28:35.126Z,1.87
2022-12-26T06:31:06.748Z,1.92
2022-12-26T06:33:33.832Z,1.94
2022-12-26T06:36:08.721Z,1.94
2022-12-26T06:38:35.703Z,1.94
2022-12-26T06:41:05.278Z,1.93
2022-12-26T06:43:32.254Z,1.94
2022-12-26T06:46:00.287Z,1.98
2022-12-26T06:48:27.481Z,2.04
2022-12-26T06:50:54.570Z,2.09
2022-12-26T06:53:22.829Z,2.10
2022-12-26T06:55:50.271Z,2.10
2022-12-26T06:58:17.727Z,2.09
2022-12-26T07:00:44.740Z,2.08
2022-12-26T07:03:11.855Z,2.14
2022-12-26T07:05:38.896Z,2.24
2022-12-26T07:08:07.138Z,2.31
2022-12-26T07:10:37.361Z,2.32
2022-12-26T07:13:04.443Z,2.32
2022-12-26T07:15:31.727Z,2.30
2022-12-26T07:18:02.388Z,2.27
2022-12-26T07:20:29.333Z,2.30
2022-12-26T07:22:56.577Z,2.39
2022-12-26T07:25:23.635Z,2.44
2022-12-26T07:27:53.988Z,2.45
2022-12-26T07:30:21.502Z,2.44
2022-12-26T07:32:48.466Z,2.42
2022-12-26T07:35:15.387Z,2.38
2022-12-26T07:37:42.346Z,2.41
2022-12-26T07:40:10.924Z,2.46
2022-12-26T07:42:37.867Z,2.45
2022-12-26T07:45:05.529Z,2.43
2022-12-26T07:47:32.474Z,2.41
2022-12-26T07:49:59.527Z,2.39
2022-12-26T07:52:28.667Z,2.36
2022-12-26T07:55:00.591Z,2.39
2022-12-26T07:57:48.235Z,2.47
2022-12-26T08:00:16.808Z,2.50
2022-12-26T08:02:43.916Z,2.51
2022-12-26T08:05:13.574Z,2.54
2022-12-26T08:07:40.605Z,2.57
2022-12-26T08:10:07.964Z,2.64
2022-12-26T08:12:37.249Z,2.74
2022-12-26T08:15:04.806Z,2.82
2022-12-26T08:17:33.207Z,2.85
2022-12-26T08:20:00.116Z,2.87
2022-12-26T08:22:27.402Z,2.87
2022-12-26T08:24:54.327Z,2.87
2022-12-26T08:27:21.146Z,2.90
2022-12-26T08:29:48.216Z,2.93
2022-12-26T08:32:15.177Z,2.94
2022-12-26T08:34:42.205Z,2.90
2022-12-26T08:37:09.123Z,2.85
2022-12-26T08:39:36.162Z,2.83
2022-12-26T08:42:03.146Z,2.81
2022-12-26T08:44:30.044Z,2.85
2022-12-26T08:46:57.442Z,2.92
2022-12-26T08:49:24.298Z,2.94
2022-12-26T08:51:51.259Z,2.91
2022-12-26T08:54:18.077Z,2.92
2022-12-26T08:56:45.040Z,2.91
2022-12-26T08:59:12.062Z,2.91
2022-12-26T09:01:39.116Z,2.94
2022-12-26T09:04:07.644Z,3.01
2022-12-26T09:06:35.860Z,3.01
2022-12-26T09:09:03.123Z,2.96
2022-12-26T09:11:30.889Z,2.91
2022-12-26T09:13:59.351Z,2.88
2022-12-26T09:16:39.329Z,2.91
2022-12-26T09:19:14.220Z,2.97
2022-12-26T09:21:41.411Z,3.00
2022-12-26T09:24:11.431Z,2.96
2022-12-26T09:26:38.459Z,2.94
2022-12-26T09:29:05.319Z,2.93
2022-12-26T09:31:33.580Z,3.00
2022-12-26T09:34:03.392Z,3.10
2022-12-26T09:36:31.878Z,3.16
2022-12-26T09:38:59.443Z,3.18
2022-12-26T09:41:35.520Z,3.18
2022-12-26T09:44:20.357Z,3.19
2022-12-26T09:46:56.556Z,3.21
2022-12-26T09:49:26.460Z,3.29
2022-12-26T09:51:55.766Z,3.38
2022-12-26T09:54:37.622Z,3.40
2022-12-26T09:57:15.010Z,3.41
2022-12-26T10:00:01.718Z,3.41
2022-12-26T10:02:28.804Z,3.39
2022-12-26T10:04:55.972Z,3.38
2022-12-26T10:07:28.431Z,3.42
2022-12-26T13:16:21.369Z,6.57
2022-12-26T13:19:00.214Z,6.74
2022-12-26T13:21:27.160Z,6.70
2022-12-26T13:24:19.913Z,6.69
2022-12-26T13:26:59.246Z,6.63
2022-12-26T13:29:34.583Z,6.53
2022-12-26T13:32:02.373Z,6.44
2022-12-26T13:34:29.345Z,6.37
2022-12-26T13:36:57.538Z,6.31
2022-12-26T13:39:32.107Z,6.29
2022-12-26T13:42:24.152Z,6.31
2022-12-26T13:44:53.648Z,6.28
2022-12-26T13:47:32.721Z,6.24
2022-12-26T13:50:00.846Z,6.17
2022-12-26T13:52:35.880Z,6.08
2022-12-26T13:55:06.842Z,5.99
2022-12-26T13:57:42.823Z,6.00
2022-12-26T14:00:15.176Z,6.04
2022-12-26T14:03:18.731Z,6.03
2022-12-26T14:06:12.942Z,5.97
2022-12-26T14:08:58.406Z,5.89
2022-12-26T14:11:31.600Z,5.83
2022-12-26T14:14:11.656Z,5.77
2022-12-26T14:17:08.125Z,5.77
2022-12-26T14:19:47.205Z,5.81
2022-12-26T14:22:46.198Z,5.79
2022-12-26T14:25:16.146Z,5.75
2022-12-26T14:27:52.691Z,5.68
2022-12-26T14:30:22.520Z,5.61
2022-12-26T14:33:16.014Z,5.60
2022-12-26T14:36:09.838Z,5.63
2022-12-26T14:38:57.722Z,5.62
2022-12-26T14:41:43.669Z,5.57
2022-12-26T14:44:14.498Z,5.50
2022-12-26T14:46:41.353Z,5.45
2022-12-26T14:49:39.575Z,5.40
2022-12-26T14:52:25.314Z,5.41
2022-12-26T14:54:53.439Z,5.47
2022-12-26T14:57:40.222Z,5.45
2022-12-26T15:00:14.190Z,5.41
2022-12-26T15:02:43.609Z,5.36
2022-12-26T15:05:13.921Z,5.31
2022-12-26T15:07:53.176Z,5.26
2022-12-26T15:10:42.350Z,5.27
2022-12-26T15:13:30.192Z,5.28
2022-12-26T15:16:16.650Z,5.25
2022-12-26T15:19:29.187Z,5.19
2022-12-26T15:22:33.392Z,5.10
2022-12-26T15:25:25.421Z,5.01
2022-12-26T15:27:59.635Z,4.93
2022-12-26T15:30:32.840Z,4.94
2022-12-26T15:33:22.194Z,4.99
2022-12-26T15:36:02.949Z,5.00
2022-12-26T15:38:55.511Z,4.97
2022-12-26T15:48:03.463Z,4.95
2022-12-26T15:51:02.216Z,4.99
2022-12-26T15:53:54.796Z,4.96
2022-12-26T15:56:24.996Z,4.90
2022-12-26T15:59:34.189Z,4.81
2022-12-26T16:02:01.749Z,4.71
2022-12-26T16:04:38.998Z,4.71
2022-12-26T16:07:19.256Z,4.76
2022-12-26T16:09:56.643Z,4.77
2022-12-26T16:12:34.410Z,4.75
2022-12-26T16:15:10.702Z,4.71
2022-12-26T16:17:38.574Z,4.65
2022-12-26T16:20:51.087Z,4.56
2022-12-26T16:23:19.769Z,4.54
2022-12-26T16:25:48.079Z,4.56
2022-12-26T16:28:15.091Z,4.54
2022-12-26T16:30:42.139Z,4.50
2022-12-26T16:33:14.705Z,4.46
2022-12-26T16:35:42.376Z,4.40
2022-12-26T16:38:26.692Z,4.35
2022-12-26T16:40:55.936Z,4.38
2022-12-26T16:43:30.853Z,4.44
2022-12-26T16:46:03.800Z,4.46
2022-12-26T16:48:32.445Z,4.45
2022-12-26T16:51:06.961Z,4.41
2022-12-26T16:53:36.963Z,4.38
2022-12-26T16:56:33.918Z,4.44
2022-12-26T16:59:17.024Z,4.49
2022-12-26T21:17:57.936Z,3.10
2022-12-26T21:20:25.809Z,3.62
2022-12-26T21:22:53.867Z,3.70
2022-12-26T21:25:21.451Z,3.76
2022-12-26T21:27:49.703Z,3.86
2022-12-26T21:30:19.107Z,3.98
2022-12-26T21:32:46.482Z,4.04
2022-12-26T21:35:13.505Z,4.05
2022-12-26T21:37:51.632Z,4.03
2022-12-26T21:40:20.298Z,4.03
2022-12-26T21:42:47.252Z,4.08
2022-12-26T21:45:14.201Z,4.17
2022-12-26T21:47:41.744Z,4.21
2022-12-26T21:50:09.313Z,4.22
2022-12-26T21:52:36.246Z,4.23
2022-12-26T21:55:22.034Z,4.23
2022-12-26T21:57:48.983Z,4.23
2022-12-26T22:00:16.549Z,4.29
2022-12-26T22:03:02.405Z,4.37
2022-12-26T22:05:30.189Z,4.41
2022-12-26T22:07:59.193Z,4.42
2022-12-26T22:10:47.021Z,4.42
2022-12-26T22:13:13.982Z,4.42
2022-12-26T22:16:01.301Z,4.47
2022-12-26T22:18:29.666Z,4.54
2022-12-26T22:20:56.642Z,4.60
2022-12-26T22:23:24.274Z,4.65
2022-12-26T22:25:55.409Z,4.68
2022-12-26T22:28:23.451Z,4.68
2022-12-26T22:30:51.071Z,4.75
2022-12-26T22:33:19.791Z,4.84
2022-12-26T22:35:46.758Z,4.88
2022-12-26T22:38:14.024Z,4.88
2022-12-26T22:40:41.278Z,4.86
2022-12-26T22:43:08.224Z,4.82
2022-12-26T22:45:39.815Z,4.81
2022-12-26T22:48:07.251Z,4.90
2022-12-26T22:50:34.280Z,5.03
2022-12-26T22:53:01.682Z,5.17
2022-12-26T22:55:28.575Z,5.30
2022-12-26T22:58:00.551Z,5.43
2022-12-26T23:00:29.239Z,5.60
2022-12-26T23:02:56.792Z,5.82
2022-12-26T23:05:24.344Z,6.03
2022-12-26T23:07:51.700Z,6.21
2022-12-26T23:10:21.280Z,6.35
2022-12-26T23:12:48.582Z,6.48
2022-12-26T23:15:26.529Z,6.61
2022-12-26T23:18:34.265Z,6.74
2022-12-26T23:21:25.164Z,6.84
2022-12-26T23:23:51.972Z,6.96
2022-12-26T23:26:18.955Z,7.09
2022-12-26T23:29:04.871Z,7.29
2022-12-26T23:31:31.875Z,7.56
2022-12-26T23:33:58.949Z,7.73
2022-12-26T23:36:26.098Z,7.81
2022-12-26T23:38:53.132Z,7.82
2022-12-26T23:41:20.112Z,7.76
2022-12-26T23:43:47.066Z,7.66
2022-12-26T23:46:14.291Z,7.51
2022-12-26T23:48:41.330Z,7.29
2022-12-26T23:51:08.593Z,7.04
2022-12-26T23:53:37.798Z,6.87
2022-12-26T23:56:13.826Z,6.74
2022-12-26T23:58:42.385Z,6.58
